world map with TDK marked

TDK - Airport

This information may not be accurate or current and is not valid for navigation or flight planning. No warranty of fitness for any purpose is made or implied.

flag of Kazakhstan

Donate via PayPal

Additional information is available on the NEW Great Circle Mapper

Location
City:  Taldykorgan, Almaty, Kazakhstan
Near (Alt.):Taldy Kurgan
Name:Taldykorgan Airport
ICAO / IATA:UAAT / TDK

Details
Type:Airport (Aerodrome, Airfield)
Use:Public/Civil
Latitude:45°07'21"N (45.122500)
Longitude:78°26'34"E (78.442778)
Elevation:1946 ft (593 m)
Runways:1
Longest:9846 × 164 ft (3001 × 50 m)

Weather
METAR:UAAT  041300Z 03003MPS 9999 SCT050CB BKN100 M02/M05 Q1019 NOSIG RMK QFE713/0951

Related Locations
Nearby:
Farthest:NEMO: 11379 mi / 18313 km
Pacific Ocean [Oceanic Pole of Inaccessibility (Point Nemo)]

Find:

   beyond  
but within

Other Information
Maps:
Links:
Sources:

  


 


Great Circle Mapper   Great Circle Mapper
Great Circle Mapper FAQ   Great Circle Mapper FAQ
  Karl's Home Page
KLSē   KLSē Home
   GC on Facebook
Airlines of the World   Airlines of the World
Donate via PayPal


Copyright © 2004-2020, Karl L. Swartz. All rights reserved.
All trademarks mentioned herein belong to their respective owners.

Please see credits for attribution and copyright information.

Karl Swartz <karl@kls2.com>
  Powered by FreeBSD
Valid HTML 4.01!
Labeled with ICRA
hCard Microformat
Geo Microformat